createdAt,value
2016-08-31T00:04:14.203Z,"  -69"
2016-08-31T00:09:11.047Z,"  -69"
2016-08-31T00:14:07.597Z,"  -69"
2016-08-31T00:19:04.161Z,"  -68"
2016-08-31T00:24:03.171Z,"  -68"
2016-08-31T00:28:59.254Z,"  -69"
2016-08-31T00:33:55.775Z,"  -69"
2016-08-31T00:38:52.203Z,"  -67"
2016-08-31T00:43:48.804Z,"  -70"
2016-08-31T00:48:45.277Z,"  -68"
2016-08-31T00:53:42.548Z,"  -69"
2016-08-31T00:58:39.156Z,"  -69"
2016-08-31T01:03:35.632Z,"  -68"
2016-08-31T01:08:32.590Z,"  -69"
2016-08-31T01:13:29.170Z,"  -69"
2016-08-31T01:18:25.701Z,"  -70"
2016-08-31T01:23:22.330Z,"  -68"
2016-08-31T01:28:18.938Z,"  -68"
2016-08-31T01:33:15.643Z,"  -68"
2016-08-31T01:38:12.232Z,"  -69"
2016-08-31T01:43:08.747Z,"  -69"
2016-08-31T01:48:05.581Z,"  -69"
2016-08-31T01:53:02.008Z,"  -69"
2016-08-31T01:57:58.624Z,"  -71"
2016-08-31T02:02:55.111Z,"  -70"
2016-08-31T02:07:51.732Z,"  -71"
2016-08-31T02:12:48.445Z,"  -70"
2016-08-31T02:17:44.935Z,"  -69"
2016-08-31T02:22:41.511Z,"  -70"
2016-08-31T02:27:38.731Z,"  -70"
2016-08-31T02:32:35.364Z,"  -71"
2016-08-31T02:37:31.905Z,"  -71"
2016-08-31T02:42:28.594Z,"  -71"
2016-08-31T02:47:25.120Z,"  -68"
2016-08-31T02:52:22.032Z,"  -70"
2016-08-31T02:57:18.645Z,"  -70"
2016-08-31T03:02:15.150Z,"  -70"
2016-08-31T03:07:11.725Z,"  -71"
2016-08-31T03:12:08.778Z,"  -69"
2016-08-31T03:17:05.631Z,"  -70"
2016-08-31T03:22:02.157Z,"  -70"
2016-08-31T03:26:58.662Z,"  -70"
2016-08-31T03:31:55.620Z,"  -69"
2016-08-31T03:36:52.311Z,"  -68"
2016-08-31T03:41:49.103Z,"  -68"
2016-08-31T03:46:45.824Z,"  -68"
2016-08-31T03:51:42.567Z,"  -69"
2016-08-31T03:56:39.115Z,"  -69"
2016-08-31T04:01:35.519Z,"  -69"
2016-08-31T04:06:32.460Z,"  -69"
2016-08-31T04:11:28.845Z,"  -68"
2016-08-31T04:16:25.283Z,"  -68"
2016-08-31T04:21:21.847Z,"  -68"
2016-08-31T04:26:18.331Z,"  -68"
2016-08-31T04:31:14.882Z,"  -68"
2016-08-31T04:36:11.797Z,"  -68"
2016-08-31T04:41:08.240Z,"  -68"
2016-08-31T04:46:04.709Z,"  -68"
2016-08-31T04:51:01.832Z,"  -68"
2016-08-31T04:55:58.179Z,"  -68"
2016-08-31T05:00:55.150Z,"  -68"
2016-08-31T05:05:51.961Z,"  -70"
2016-08-31T05:10:48.557Z,"  -68"
2016-08-31T05:15:45.179Z,"  -68"
2016-08-31T05:20:41.749Z,"  -67"
2016-08-31T05:25:38.284Z,"  -66"
2016-08-31T05:30:34.971Z,"  -67"
2016-08-31T05:35:31.664Z,"  -67"
2016-08-31T05:40:27.996Z,"  -66"
2016-08-31T05:45:24.581Z,"  -67"
2016-08-31T05:50:21.368Z,"  -66"
2016-08-31T05:55:18.245Z,"  -67"
2016-08-31T06:00:15.918Z,"  -68"
2016-08-31T06:05:12.884Z,"  -67"
2016-08-31T06:10:09.750Z,"  -68"
2016-08-31T06:15:06.583Z,"  -72"
2016-08-31T06:20:05.748Z,"  -70"
2016-08-31T06:25:02.775Z,"  -66"
2016-08-31T06:29:59.204Z,"  -67"
2016-08-31T06:34:56.905Z,"  -68"
2016-08-31T06:39:53.257Z,"  -67"
2016-08-31T06:44:50.026Z,"  -67"
2016-08-31T06:49:46.730Z,"  -69"
2016-08-31T06:54:43.508Z,"  -68"
2016-08-31T06:59:40.099Z,"  -68"
2016-08-31T07:04:36.748Z,"  -68"
2016-08-31T07:09:33.401Z,"  -67"
2016-08-31T07:14:30.187Z,"  -67"
2016-08-31T07:19:27.016Z,"  -65"
2016-08-31T07:24:24.005Z,"  -67"
2016-08-31T07:29:20.643Z,"  -65"
2016-08-31T07:34:20.117Z,"  -67"
2016-08-31T07:39:16.262Z,"  -66"
2016-08-31T07:44:14.099Z,"  -69"
2016-08-31T07:49:10.527Z,"  -67"
2016-08-31T07:54:08.707Z,"  -66"
2016-08-31T07:59:05.500Z,"  -66"
2016-08-31T08:04:02.530Z,"  -66"
2016-08-31T08:09:00.089Z,"  -66"
2016-08-31T08:13:57.278Z,"  -66"
2016-08-31T08:18:54.989Z,"  -67"
2016-08-31T08:23:52.488Z,"  -68"
2016-08-31T08:28:49.724Z,"  -67"
2016-08-31T08:33:46.729Z,"  -67"
2016-08-31T08:43:44.398Z,"  -67"
2016-08-31T08:48:41.077Z,"  -68"
2016-08-31T08:53:40.611Z,"  -67"
2016-08-31T08:58:36.444Z,"  -69"
2016-08-31T09:03:32.648Z,"  -69"
2016-08-31T09:08:28.823Z,"  -70"
2016-08-31T09:13:25.151Z,"  -71"
2016-08-31T09:18:21.523Z,"  -70"
2016-08-31T09:23:17.942Z,"  -70"
2016-08-31T09:28:14.834Z,"  -70"
2016-08-31T09:33:11.203Z,"  -70"
2016-08-31T09:38:07.990Z,"  -69"
2016-08-31T09:43:04.987Z,"  -70"
2016-08-31T09:48:01.598Z,"  -71"
2016-08-31T09:52:58.408Z,"  -71"
2016-08-31T09:57:55.064Z,"  -71"
2016-08-31T10:02:51.691Z,"  -68"
2016-08-31T10:07:48.308Z,"  -67"
2016-08-31T10:12:44.983Z,"  -67"
2016-08-31T10:17:41.546Z,"  -68"
2016-08-31T10:22:38.241Z,"  -68"
2016-08-31T10:27:35.116Z,"  -67"
2016-08-31T10:32:31.848Z,"  -67"
2016-08-31T10:37:28.681Z,"  -67"
2016-08-31T10:42:25.571Z,"  -66"
2016-08-31T10:47:22.038Z,"  -66"
2016-08-31T10:52:18.702Z,"  -67"
2016-08-31T10:57:15.610Z,"  -69"
2016-08-31T11:02:12.741Z,"  -70"
2016-08-31T11:07:09.431Z,"  -70"
2016-08-31T11:12:06.113Z,"  -71"
2016-08-31T11:17:02.704Z,"  -69"
2016-08-31T11:21:59.706Z,"  -70"
2016-08-31T11:26:56.330Z,"  -70"
2016-08-31T11:31:52.913Z,"  -70"
2016-08-31T11:36:52.232Z,"  -69"
2016-08-31T11:41:48.218Z,"  -68"
2016-08-31T11:46:44.790Z,"  -69"
2016-08-31T11:51:42.432Z,"  -71"
2016-08-31T11:56:39.054Z,"  -70"
2016-08-31T12:01:35.730Z,"  -70"
2016-08-31T12:06:32.396Z,"  -71"
2016-08-31T12:11:29.015Z,"  -69"
2016-08-31T12:16:26.044Z,"  -70"
2016-08-31T12:21:22.721Z,"  -70"
2016-08-31T12:26:19.467Z,"  -69"
2016-08-31T12:31:16.206Z,"  -69"
2016-08-31T12:36:13.855Z,"  -69"
2016-08-31T12:41:10.221Z,"  -67"
2016-08-31T12:46:08.085Z,"  -70"
2016-08-31T12:51:06.901Z,"  -70"
2016-08-31T12:56:03.073Z,"  -69"
2016-08-31T13:00:59.713Z,"  -68"
2016-08-31T13:05:58.953Z,"  -71"
2016-08-31T13:10:54.763Z,"  -70"
2016-08-31T13:15:51.999Z,"  -71"
2016-08-31T13:20:49.096Z,"  -70"
2016-08-31T13:25:45.663Z,"  -70"
2016-08-31T13:30:42.562Z,"  -69"
2016-08-31T13:35:39.218Z,"  -68"
2016-08-31T13:40:36.873Z,"  -70"
2016-08-31T13:45:33.293Z,"  -70"
2016-08-31T13:50:30.006Z,"  -70"
2016-08-31T13:55:27.411Z,"  -71"
2016-08-31T14:00:24.393Z,"  -70"
2016-08-31T14:05:21.118Z,"  -67"
2016-08-31T14:10:18.035Z,"  -70"
2016-08-31T14:15:14.488Z,"  -68"
2016-08-31T14:20:12.334Z,"  -70"
2016-08-31T14:25:08.821Z,"  -67"
2016-08-31T14:30:05.269Z,"  -70"
2016-08-31T14:35:02.281Z,"  -70"
2016-08-31T14:39:58.941Z,"  -69"
2016-08-31T14:44:56.000Z,"  -68"
2016-08-31T14:49:52.670Z,"  -68"
2016-08-31T14:54:49.220Z,"  -69"
2016-08-31T14:59:46.174Z,"  -69"
2016-08-31T15:04:45.834Z,"  -68"
2016-08-31T15:09:41.840Z,"  -67"
2016-08-31T15:14:38.361Z,"  -69"
2016-08-31T15:19:35.009Z,"  -68"
2016-08-31T15:24:31.626Z,"  -75"
2016-08-31T15:29:28.320Z,"  -76"
2016-08-31T15:34:24.935Z,"  -82"
2016-08-31T15:39:21.721Z,"  -80"
2016-08-31T15:44:18.431Z,"  -77"
2016-08-31T15:49:15.273Z,"  -70"
2016-08-31T15:54:14.418Z,"  -72"
2016-08-31T15:59:10.562Z,"  -76"
2016-08-31T16:04:07.295Z,"  -73"
2016-08-31T16:09:04.005Z,"  -71"
2016-08-31T16:14:01.157Z,"  -72"
2016-08-31T16:18:59.005Z,"  -74"
2016-08-31T16:23:55.351Z,"  -72"
2016-08-31T16:28:52.021Z,"  -70"
2016-08-31T16:33:51.138Z,"  -71"
2016-08-31T16:38:47.149Z,"  -73"
2016-08-31T16:43:43.758Z,"  -71"
2016-08-31T16:48:40.401Z,"  -77"
2016-08-31T16:53:37.065Z,"  -75"
2016-08-31T16:58:33.650Z,"  -71"
2016-08-31T17:03:30.329Z,"  -73"
2016-08-31T17:08:27.069Z,"  -72"
2016-08-31T17:13:23.681Z,"  -71"
2016-08-31T17:18:20.473Z,"  -74"
2016-08-31T17:23:17.581Z,"  -76"
2016-08-31T17:28:14.246Z,"  -75"
2016-08-31T17:33:10.903Z,"  -76"
2016-08-31T17:38:07.393Z,"  -72"
2016-08-31T17:43:04.013Z,"  -70"
2016-08-31T17:48:00.769Z,"  -70"
2016-08-31T17:52:57.574Z,"  -76"
2016-08-31T17:57:54.147Z,"  -71"
2016-08-31T18:02:53.452Z,"  -73"
2016-08-31T18:07:49.519Z,"  -71"
2016-08-31T18:12:48.507Z,"  -74"
2016-08-31T18:17:44.875Z,"  -70"
2016-08-31T18:22:41.428Z,"  -70"
2016-08-31T18:27:37.903Z,"  -74"
2016-08-31T18:32:34.442Z,"  -75"
2016-08-31T18:37:31.128Z,"  -76"
2016-08-31T18:42:28.190Z,"  -76"
2016-08-31T18:47:24.773Z,"  -76"
2016-08-31T18:52:21.449Z,"  -76"
2016-08-31T18:57:18.534Z,"  -77"
2016-08-31T19:02:15.488Z,"  -76"
2016-08-31T19:07:13.601Z,"  -70"
2016-08-31T19:12:09.671Z,"  -71"
2016-08-31T19:17:06.269Z,"  -74"
2016-08-31T19:22:03.434Z,"  -68"
2016-08-31T19:27:00.149Z,"  -74"
2016-08-31T19:31:56.844Z,"  -69"
2016-08-31T19:36:53.339Z,"  -70"
2016-08-31T19:41:52.549Z,"  -70"
2016-08-31T19:46:48.581Z,"  -71"
2016-08-31T19:51:47.763Z,"  -72"
2016-08-31T19:56:44.024Z,"  -67"
2016-08-31T20:01:40.637Z,"  -69"
2016-08-31T20:06:37.198Z,"  -68"
2016-08-31T20:11:34.743Z,"  -69"
2016-08-31T20:16:31.307Z,"  -72"
2016-08-31T20:21:29.365Z,"  -67"
2016-08-31T20:26:25.517Z,"  -73"
2016-08-31T20:31:23.677Z,"  -68"
2016-08-31T20:36:20.294Z,"  -73"
2016-08-31T20:41:18.306Z,"  -71"
2016-08-31T20:46:14.638Z,"  -71"
2016-08-31T20:51:11.205Z,"  -66"
2016-08-31T20:56:07.791Z,"  -67"
2016-08-31T21:01:04.548Z,"  -77"
2016-08-31T21:06:01.179Z,"  -70"
2016-08-31T21:10:57.644Z,"  -73"
2016-08-31T21:15:54.264Z,"  -67"
2016-08-31T21:20:50.880Z,"  -67"
2016-08-31T21:25:47.510Z,"  -66"
2016-08-31T21:30:44.166Z,"  -67"
2016-08-31T21:35:41.147Z,"  -67"
2016-08-31T21:40:37.873Z,"  -67"
2016-08-31T21:45:34.459Z,"  -66"
2016-08-31T21:50:30.974Z,"  -68"
2016-08-31T21:55:27.433Z,"  -66"
2016-08-31T22:00:24.072Z,"  -67"
2016-08-31T22:05:20.808Z,"  -67"
2016-08-31T22:10:17.399Z,"  -67"
2016-08-31T22:15:13.931Z,"  -68"
2016-08-31T22:20:10.835Z,"  -66"
2016-08-31T22:25:07.799Z,"  -71"
2016-08-31T22:30:04.666Z,"  -68"
2016-08-31T22:35:01.258Z,"  -69"
2016-08-31T22:39:57.878Z,"  -69"
2016-08-31T22:44:54.496Z,"  -67"
2016-08-31T22:49:51.397Z,"  -66"
2016-08-31T22:54:48.045Z,"  -67"
2016-08-31T22:59:44.607Z,"  -68"
2016-08-31T23:04:41.574Z,"  -68"
2016-08-31T23:09:39.448Z,"  -68"
2016-08-31T23:14:36.086Z,"  -67"
2016-08-31T23:19:34.957Z,"  -69"
2016-08-31T23:24:30.836Z,"  -68"
2016-08-31T23:29:27.477Z,"  -71"
2016-08-31T23:34:23.963Z,"  -67"
2016-08-31T23:39:20.633Z,"  -71"
2016-08-31T23:44:19.509Z,"  -68"
2016-08-31T23:49:15.591Z,"  -68"
2016-08-31T23:54:12.076Z,"  -71"
2016-08-31T23:59:08.692Z,"  -70"
